createdAt,value
2023-04-17T00:00:04.647Z,23.77
2023-04-17T00:02:39.769Z,24.55
2023-04-17T00:05:09.357Z,23.83
2023-04-17T00:07:38.848Z,24.38
2023-04-17T00:10:09.016Z,25.00
2023-04-17T00:12:36.926Z,25.48
2023-04-17T00:15:05.598Z,24.67
2023-04-17T00:17:33.572Z,24.90
2023-04-17T00:20:06.084Z,24.90
2023-04-17T00:22:34.605Z,25.25
2023-04-17T00:25:02.250Z,24.88
2023-04-17T00:27:29.898Z,26.02
2023-04-17T00:29:57.620Z,25.88
2023-04-17T00:32:25.332Z,25.80
2023-04-17T00:34:55.586Z,26.90
2023-04-17T00:37:25.295Z,27.80
2023-04-17T00:39:53.567Z,25.80
2023-04-17T00:42:21.654Z,26.05
2023-04-17T00:44:49.366Z,25.85
2023-04-17T00:47:17.464Z,27.23
2023-04-17T00:49:45.163Z,26.88
2023-04-17T00:52:13.281Z,26.20
2023-04-17T00:54:42.507Z,26.25
2023-04-17T00:57:10.371Z,26.85
2023-04-17T00:59:39.040Z,27.48
2023-04-17T01:02:06.885Z,27.95
2023-04-17T01:04:34.693Z,27.50
2023-04-17T01:07:02.549Z,27.38
2023-04-17T01:09:30.319Z,26.83
2023-04-17T01:12:21.061Z,27.70
2023-04-17T01:14:50.983Z,27.92
2023-04-17T01:17:20.770Z,29.27
2023-04-17T01:19:49.590Z,29.38
2023-04-17T01:22:17.541Z,27.83
2023-04-17T01:24:47.603Z,29.48
2023-04-17T01:27:15.865Z,29.35
2023-04-17T01:29:45.720Z,29.75
2023-04-17T01:32:13.420Z,30.77
2023-04-17T01:34:41.707Z,30.08
2023-04-17T01:37:09.459Z,30.55
2023-04-17T01:39:37.289Z,29.35
2023-04-17T01:42:06.626Z,31.02
2023-04-17T01:44:34.465Z,30.48
2023-04-17T01:47:02.066Z,28.40
2023-04-17T01:49:29.997Z,29.55
2023-04-17T01:51:57.780Z,29.83
2023-04-17T01:54:25.792Z,30.95
2023-04-17T01:56:54.002Z,28.42
2023-04-17T01:59:24.261Z,28.73
2023-04-17T02:01:52.136Z,30.45
2023-04-17T02:04:20.250Z,30.25
2023-04-17T02:06:48.037Z,29.05
2023-04-17T02:09:17.706Z,29.08
2023-04-17T02:11:45.938Z,29.58
2023-04-17T02:14:14.043Z,30.00
2023-04-17T02:16:45.540Z,29.98
2023-04-17T02:19:13.513Z,29.92
2023-04-17T02:21:42.052Z,29.95
2023-04-17T02:24:09.769Z,31.27
2023-04-17T02:26:37.822Z,30.55
2023-04-17T02:29:06.199Z,31.88
2023-04-17T02:31:33.945Z,31.73
2023-04-17T02:34:03.263Z,32.63
2023-04-17T02:36:31.179Z,31.50
2023-04-17T02:38:58.805Z,31.92
2023-04-17T02:41:26.780Z,32.00
2023-04-17T02:43:54.422Z,31.80
2023-04-17T02:46:22.165Z,32.75
2023-04-17T02:48:50.041Z,31.40
2023-04-17T02:51:19.023Z,34.03
2023-04-17T02:53:48.992Z,33.38
2023-04-17T02:56:16.782Z,33.05
2023-04-17T02:58:45.534Z,32.75
2023-04-17T03:01:13.411Z,33.72
2023-04-17T03:03:45.330Z,32.33
2023-04-17T03:06:15.770Z,34.78
2023-04-17T03:08:45.298Z,35.38
2023-04-17T03:11:13.221Z,33.85
2023-04-17T03:13:40.821Z,33.00
2023-04-17T03:16:08.619Z,34.60
2023-04-17T03:18:40.804Z,35.78
2023-04-17T03:21:09.103Z,34.10
2023-04-17T03:23:36.867Z,35.13
2023-04-17T03:26:08.609Z,35.00
2023-04-17T03:28:37.302Z,34.42
2023-04-17T03:31:07.022Z,35.67
2023-04-17T03:33:37.722Z,35.65
2023-04-17T03:36:05.677Z,34.50
2023-04-17T03:38:34.640Z,36.63
2023-04-17T03:41:02.770Z,35.75
2023-04-17T03:43:31.843Z,34.97
2023-04-17T03:45:59.577Z,34.25
2023-04-17T03:48:27.296Z,35.33
2023-04-17T03:50:56.703Z,37.20
2023-04-17T03:53:25.193Z,36.13
2023-04-17T03:55:53.688Z,35.92
2023-04-17T03:58:26.749Z,37.20
2023-04-17T04:00:58.906Z,37.78
2023-04-17T04:03:31.266Z,37.20
2023-04-17T04:06:00.275Z,36.72
2023-04-17T04:08:28.054Z,38.22
2023-04-17T04:10:56.241Z,38.00
2023-04-17T04:13:34.911Z,38.45
2023-04-17T04:16:06.783Z,38.63
2023-04-17T04:18:36.812Z,38.15
2023-04-17T04:21:06.670Z,38.17
2023-04-17T04:23:39.106Z,38.17
2023-04-17T04:26:07.829Z,38.33
2023-04-17T04:28:39.304Z,40.58
2023-04-17T04:31:14.408Z,39.75
2023-04-17T04:33:45.049Z,39.17
2023-04-17T04:36:20.838Z,39.90
2023-04-17T04:39:00.303Z,37.35
2023-04-17T04:41:34.772Z,38.28
2023-04-17T04:44:05.775Z,39.22
2023-04-17T04:46:37.600Z,39.17
2023-04-17T04:49:06.639Z,39.30
2023-04-17T04:51:34.355Z,42.08
2023-04-17T04:54:05.803Z,41.20
2023-04-17T04:56:38.273Z,41.22
2023-04-17T04:59:06.033Z,40.00
2023-04-17T05:01:39.602Z,41.45
2023-04-17T05:04:08.881Z,39.97
2023-04-17T05:06:36.775Z,39.88
2023-04-17T05:09:05.615Z,40.08
2023-04-17T05:11:33.743Z,41.33
2023-04-17T05:14:02.134Z,42.13
2023-04-17T05:16:33.550Z,41.50
2023-04-17T05:19:02.567Z,41.05
2023-04-17T05:21:45.871Z,41.55
2023-04-17T05:24:14.015Z,42.75
2023-04-17T05:26:41.707Z,42.95
2023-04-17T05:29:10.199Z,41.70
2023-04-17T05:31:37.977Z,44.20
2023-04-17T05:34:15.361Z,40.20
2023-04-17T05:36:44.656Z,43.72
2023-04-17T05:39:12.525Z,42.58
2023-04-17T05:41:40.345Z,43.88
2023-04-17T05:44:08.540Z,43.08
2023-04-17T05:46:36.248Z,42.78
2023-04-17T05:49:05.711Z,42.78
2023-04-17T05:51:35.263Z,43.05
2023-04-17T05:54:03.564Z,42.00
2023-04-17T05:56:32.660Z,43.10
2023-04-17T05:59:01.051Z,43.95
2023-04-17T06:01:29.684Z,42.60
2023-04-17T06:03:57.973Z,41.45
2023-04-17T06:06:28.559Z,40.60
2023-04-17T06:08:59.267Z,38.47
2023-04-17T06:11:27.759Z,39.00
2023-04-17T06:13:55.534Z,37.88
2023-04-17T06:16:23.898Z,35.60
2023-04-17T06:18:51.941Z,34.13
2023-04-17T06:21:19.972Z,32.80
2023-04-17T06:23:47.659Z,29.70
2023-04-17T06:26:19.207Z,27.17
2023-04-17T06:28:48.417Z,26.35
2023-04-17T06:31:16.415Z,23.85
2023-04-17T06:33:44.636Z,23.27
2023-04-17T06:36:12.461Z,21.42
2023-04-17T06:38:49.814Z,20.67
2023-04-17T06:41:22.361Z,19.38
2023-04-17T06:43:50.110Z,18.27
2023-04-17T06:46:18.252Z,17.55
2023-04-17T06:48:46.003Z,17.60
2023-04-17T06:51:13.730Z,16.27
2023-04-17T06:53:41.435Z,16.02
2023-04-17T06:56:09.409Z,15.93
2023-04-17T06:58:43.977Z,16.33
2023-04-17T07:01:12.059Z,15.50
2023-04-17T07:03:40.441Z,15.77
2023-04-17T07:06:08.829Z,16.05
2023-04-17T07:08:36.531Z,15.38
2023-04-17T07:11:04.145Z,14.50
2023-04-17T07:13:33.259Z,14.10
2023-04-17T07:16:03.662Z,13.80
2023-04-17T07:18:31.638Z,13.98
2023-04-17T07:20:59.678Z,15.13
2023-04-17T07:23:27.295Z,15.50
2023-04-17T07:25:55.292Z,14.23
2023-04-17T07:28:24.475Z,14.07
2023-04-17T07:30:52.887Z,13.63
2023-04-17T07:33:21.954Z,13.90
2023-04-17T07:35:50.131Z,13.60
2023-04-17T07:38:17.762Z,13.20
2023-04-17T07:40:46.188Z,12.80
2023-04-17T07:43:13.862Z,13.35
2023-04-17T07:45:42.043Z,12.15
2023-04-17T07:48:10.520Z,12.73
2023-04-17T07:50:39.655Z,13.40
2023-04-17T07:53:08.216Z,13.60
2023-04-17T07:55:35.895Z,13.13
2023-04-17T07:58:04.109Z,12.77
2023-04-17T08:00:32.413Z,11.80
2023-04-17T08:03:01.937Z,11.77
2023-04-17T08:05:30.355Z,11.57
2023-04-17T08:08:00.245Z,12.05
2023-04-17T08:10:29.035Z,11.20
2023-04-17T08:12:56.694Z,11.15
2023-04-17T08:15:24.726Z,13.10
2023-04-17T08:17:52.634Z,11.52
2023-04-17T08:20:20.566Z,12.68
2023-04-17T08:22:48.468Z,11.50
2023-04-17T08:25:17.533Z,12.50
2023-04-17T08:27:45.563Z,13.35
2023-04-17T08:30:16.341Z,12.10
2023-04-17T08:32:47.653Z,11.90
2023-04-17T08:35:17.211Z,11.40
2023-04-17T08:37:46.817Z,11.32
2023-04-17T08:40:16.858Z,11.18
2023-04-17T08:42:47.640Z,12.20
2023-04-17T08:45:15.995Z,10.95
2023-04-17T08:47:44.675Z,11.45
2023-04-17T08:50:14.886Z,10.98
2023-04-17T08:52:43.791Z,11.40
2023-04-17T08:55:13.880Z,11.05
2023-04-17T08:58:00.740Z,11.52
2023-04-17T09:00:28.794Z,10.93
2023-04-17T09:02:57.862Z,10.68
2023-04-17T09:05:29.126Z,10.93
2023-04-17T09:08:09.075Z,11.05
2023-04-17T09:10:38.135Z,11.23
2023-04-17T09:13:08.378Z,11.20
2023-04-17T09:15:36.633Z,11.02
2023-04-17T09:18:04.945Z,10.93
2023-04-17T09:20:32.858Z,11.38
2023-04-17T09:23:02.438Z,11.30
2023-04-17T09:25:30.735Z,11.77
2023-04-17T09:28:12.649Z,11.82
2023-04-17T09:30:40.920Z,11.80
2023-04-17T09:33:09.461Z,11.55
2023-04-17T09:35:40.108Z,10.60
2023-04-17T09:38:08.369Z,11.23
2023-04-17T09:40:40.541Z,11.90
2023-04-17T09:43:10.448Z,11.02
2023-04-17T09:45:42.490Z,11.43
2023-04-17T09:48:12.766Z,12.13
2023-04-17T09:50:40.978Z,11.32
2023-04-17T09:53:09.421Z,11.23
2023-04-17T09:55:37.809Z,11.05
2023-04-17T09:58:08.297Z,12.82
2023-04-17T10:00:37.748Z,12.70
2023-04-17T10:03:08.340Z,12.15
2023-04-17T10:05:36.323Z,12.27
2023-04-17T10:08:04.149Z,12.57
2023-04-17T10:10:33.652Z,12.98
2023-04-17T10:13:03.378Z,14.27
2023-04-17T10:15:31.617Z,14.43
2023-04-17T10:18:22.964Z,13.68
2023-04-17T10:20:51.152Z,11.75
2023-04-17T10:23:31.195Z,12.90
2023-04-17T10:26:41.842Z,14.13
2023-04-17T10:29:09.786Z,14.10
2023-04-17T10:32:28.736Z,14.45
2023-04-17T10:34:58.914Z,14.27
2023-04-17T10:38:03.523Z,14.35
2023-04-17T10:40:32.039Z,11.30
2023-04-17T10:43:04.888Z,11.65
2023-04-17T10:45:59.387Z,13.15
2023-04-17T10:48:29.082Z,12.77
2023-04-17T10:50:58.467Z,13.10
2023-04-17T10:53:42.979Z,12.48
2023-04-17T10:56:11.533Z,12.00
2023-04-17T10:58:40.542Z,10.90
2023-04-17T11:01:11.577Z,10.65
2023-04-17T11:03:40.125Z,10.00
2023-04-17T11:06:10.242Z,9.48
2023-04-17T11:08:37.929Z,10.30
2023-04-17T11:11:05.680Z,9.45
2023-04-17T11:13:34.811Z,9.48
2023-04-17T11:16:04.697Z,9.73
2023-04-17T11:18:32.540Z,9.52
2023-04-17T11:21:00.196Z,9.82
2023-04-17T11:23:34.473Z,9.98
2023-04-17T11:26:02.176Z,9.13
2023-04-17T11:28:29.926Z,9.45
2023-04-17T11:30:57.652Z,10.05
2023-04-17T11:33:25.902Z,10.60
2023-04-17T11:35:55.311Z,10.07
2023-04-17T11:38:24.368Z,11.40
2023-04-17T11:40:54.671Z,11.48
2023-04-17T11:43:23.932Z,10.60
2023-04-17T11:45:53.700Z,11.05
2023-04-17T11:48:23.515Z,11.13
2023-04-17T11:50:55.816Z,10.85
2023-04-17T11:53:23.587Z,9.93
2023-04-17T11:56:14.891Z,10.25
2023-04-17T11:58:47.846Z,10.93
2023-04-17T12:01:16.156Z,11.70
2023-04-17T12:03:45.581Z,11.07
2023-04-17T12:06:13.940Z,10.85
2023-04-17T12:08:46.998Z,11.00
2023-04-17T12:11:26.004Z,10.70
2023-04-17T12:13:54.583Z,11.02
2023-04-17T12:16:24.552Z,10.82
2023-04-17T12:18:52.464Z,10.73
2023-04-17T12:21:21.330Z,10.55
2023-04-17T12:23:49.178Z,10.80
2023-04-17T12:26:17.954Z,10.77
2023-04-17T12:28:47.065Z,10.57
2023-04-17T12:31:14.796Z,10.57
2023-04-17T12:33:42.895Z,10.45
2023-04-17T12:36:10.799Z,10.80
2023-04-17T12:38:39.149Z,11.00
2023-04-17T12:41:06.927Z,10.48
2023-04-17T12:43:34.946Z,10.63
2023-04-17T12:46:04.161Z,11.32
2023-04-17T12:48:33.146Z,11.50
2023-04-17T12:51:00.919Z,10.68
2023-04-17T12:53:28.556Z,10.30
2023-04-17T12:55:56.227Z,10.25
2023-04-17T12:58:23.857Z,10.70
2023-04-17T13:00:51.585Z,11.43
2023-04-17T13:03:20.941Z,11.52
2023-04-17T13:05:52.616Z,10.20
2023-04-17T13:08:20.924Z,10.65
2023-04-17T13:10:48.613Z,11.68
2023-04-17T13:13:16.485Z,10.48
2023-04-17T13:15:46.694Z,10.60
2023-04-17T13:18:14.453Z,10.73
2023-04-17T13:20:43.961Z,9.77
2023-04-17T13:23:11.962Z,10.00
2023-04-17T13:25:39.611Z,9.25
2023-04-17T13:28:07.786Z,9.52
2023-04-17T13:30:36.900Z,10.18
2023-04-17T13:33:04.860Z,10.60
2023-04-17T13:35:32.683Z,9.98
2023-04-17T13:38:02.972Z,10.68
2023-04-17T13:40:30.953Z,10.75
2023-04-17T13:42:58.800Z,9.98
2023-04-17T13:45:26.582Z,9.52
2023-04-17T13:47:54.383Z,9.93
2023-04-17T13:50:22.101Z,9.18
2023-04-17T13:52:49.714Z,8.27
2023-04-17T13:55:19.009Z,8.75
2023-04-17T13:57:46.688Z,9.10
2023-04-17T14:00:15.530Z,8.85
2023-04-17T14:02:43.308Z,8.68
2023-04-17T14:05:11.208Z,8.73
2023-04-17T14:07:39.020Z,8.70
2023-04-17T14:10:08.203Z,8.50
2023-04-17T14:12:37.465Z,8.48
2023-04-17T14:15:06.431Z,9.45
2023-04-17T14:17:37.758Z,8.85
2023-04-17T14:20:06.297Z,9.02
2023-04-17T14:22:34.010Z,8.65
2023-04-17T14:25:01.713Z,8.95
2023-04-17T14:27:29.415Z,9.57
2023-04-17T14:30:00.664Z,9.20
2023-04-17T14:32:29.011Z,8.98
2023-04-17T14:34:56.711Z,8.70
2023-04-17T14:37:24.878Z,9.40
2023-04-17T14:39:52.609Z,9.02
2023-04-17T14:42:20.455Z,8.82
2023-04-17T14:44:48.553Z,8.75
2023-04-17T14:47:18.237Z,9.35
2023-04-17T14:49:45.870Z,9.35
2023-04-17T14:52:14.062Z,8.82
2023-04-17T14:54:42.589Z,8.55
2023-04-17T14:57:10.316Z,8.65
2023-04-17T14:59:37.961Z,8.43
2023-04-17T15:02:07.479Z,8.82
2023-04-17T15:04:36.640Z,8.98
2023-04-17T15:07:05.183Z,8.95
2023-04-17T15:09:33.265Z,9.13
2023-04-17T15:12:02.526Z,9.07
2023-04-17T15:14:30.909Z,8.73
2023-04-17T15:17:01.720Z,9.90
2023-04-17T15:19:29.589Z,9.18
2023-04-17T15:21:58.640Z,9.85
2023-04-17T15:24:26.319Z,9.07
2023-04-17T15:26:54.008Z,8.82
2023-04-17T15:29:21.744Z,9.57
2023-04-17T15:31:50.140Z,8.38
2023-04-17T15:34:18.333Z,8.52
2023-04-17T15:36:46.139Z,9.10
2023-04-17T15:39:15.306Z,8.73
2023-04-17T15:41:43.504Z,8.15
2023-04-17T15:44:11.236Z,8.80
2023-04-17T15:46:39.172Z,8.88
2023-04-17T15:49:21.493Z,8.93
2023-04-17T15:51:49.798Z,8.55
2023-04-17T15:54:19.020Z,8.07
2023-04-17T15:56:47.325Z,8.68
2023-04-17T15:59:15.134Z,8.60
2023-04-17T16:01:42.945Z,8.00
2023-04-17T16:04:11.101Z,8.30
2023-04-17T16:06:38.941Z,8.48
2023-04-17T16:09:06.669Z,8.60
2023-04-17T16:11:35.791Z,9.27
2023-04-17T16:14:03.525Z,9.30
2023-04-17T16:16:31.202Z,8.90
2023-04-17T16:19:01.171Z,9.52
2023-04-17T16:21:28.980Z,9.40
2023-04-17T16:23:58.478Z,9.80
2023-04-17T16:26:26.288Z,9.95
2023-04-17T16:28:56.389Z,9.60
2023-04-17T16:31:25.954Z,9.55
2023-04-17T16:33:54.491Z,9.55
2023-04-17T16:36:22.977Z,9.98
2023-04-17T16:38:51.560Z,9.13
2023-04-17T16:41:19.286Z,9.57
2023-04-17T16:43:47.646Z,8.98
2023-04-17T16:46:23.824Z,9.85
2023-04-17T16:48:52.514Z,9.90
2023-04-17T16:51:21.108Z,9.65
2023-04-17T16:53:48.804Z,9.63
2023-04-17T16:56:16.573Z,9.57
2023-04-17T16:58:44.247Z,9.40
2023-04-17T17:01:11.937Z,9.20
2023-04-17T17:03:43.178Z,10.00
2023-04-17T17:06:11.116Z,9.20
2023-04-17T17:08:38.942Z,9.13
2023-04-17T17:11:06.768Z,9.43
2023-04-17T17:13:35.368Z,10.20
2023-04-17T17:16:03.247Z,10.48
2023-04-17T17:18:30.907Z,9.43
2023-04-17T17:21:01.669Z,11.10
2023-04-17T17:23:29.385Z,10.55
2023-04-17T17:25:57.103Z,10.07
2023-04-17T17:28:24.868Z,10.65
2023-04-17T17:30:59.189Z,10.82
2023-04-17T17:33:26.868Z,10.45
2023-04-17T17:35:54.487Z,10.77
2023-04-17T17:38:24.592Z,10.43
2023-04-17T17:40:52.513Z,11.43
2023-04-17T17:43:20.382Z,10.15
2023-04-17T17:45:48.473Z,9.88
2023-04-17T17:48:17.225Z,10.95
2023-04-17T17:50:45.623Z,10.23
2023-04-17T17:53:14.089Z,9.90
2023-04-17T17:55:43.183Z,10.00
2023-04-17T17:58:11.002Z,9.90
2023-04-17T18:00:38.643Z,9.35
2023-04-17T18:03:06.573Z,9.45
2023-04-17T18:05:34.315Z,9.30
2023-04-17T18:08:02.490Z,9.32
2023-04-17T18:10:30.105Z,8.90
2023-04-17T18:12:59.287Z,9.48
2023-04-17T18:15:27.163Z,10.23
2023-04-17T18:17:55.447Z,9.45
2023-04-17T18:20:23.582Z,9.82
2023-04-17T18:22:51.965Z,9.15
2023-04-17T18:25:20.087Z,9.13
2023-04-17T18:27:47.784Z,9.48
2023-04-17T18:30:17.344Z,9.55
2023-04-17T18:32:45.258Z,9.20
2023-04-17T18:35:12.973Z,10.18
2023-04-17T18:37:43.224Z,8.82
2023-04-17T18:40:11.296Z,9.07
2023-04-17T18:42:39.678Z,9.15
2023-04-17T18:45:08.407Z,9.80
2023-04-17T18:47:37.471Z,8.77
2023-04-17T18:50:06.153Z,9.55
2023-04-17T18:52:38.875Z,8.70
2023-04-17T18:55:07.664Z,8.55
2023-04-17T18:57:37.080Z,8.93
2023-04-17T19:00:06.345Z,9.55
2023-04-17T19:02:35.288Z,8.52
2023-04-17T19:05:05.291Z,8.60
2023-04-17T19:07:32.966Z,8.48
2023-04-17T19:10:00.740Z,8.90
2023-04-17T19:12:28.443Z,7.82
2023-04-17T19:14:57.112Z,8.73
2023-04-17T19:17:25.788Z,8.45
2023-04-17T19:19:53.596Z,8.45
2023-04-17T19:22:23.110Z,8.38
2023-04-17T19:24:52.814Z,8.63
2023-04-17T19:27:21.068Z,7.47
2023-04-17T19:29:48.784Z,8.30
2023-04-17T19:32:16.857Z,7.88
2023-04-17T19:34:45.083Z,9.02
2023-04-17T19:37:13.063Z,8.25
2023-04-17T19:39:42.046Z,8.15
2023-04-17T19:42:09.729Z,8.30
2023-04-17T19:44:38.089Z,8.48
2023-04-17T19:47:05.960Z,8.75
2023-04-17T19:49:33.987Z,8.45
2023-04-17T19:52:01.828Z,8.48
2023-04-17T19:54:29.555Z,9.50
2023-04-17T19:56:59.079Z,8.55
2023-04-17T19:59:26.852Z,9.10
2023-04-17T20:01:54.639Z,8.82
2023-04-17T20:04:22.528Z,8.75
2023-04-17T20:06:50.317Z,9.35
2023-04-17T20:09:18.186Z,10.02
2023-04-17T20:11:46.272Z,9.30
2023-04-17T20:14:15.694Z,9.25
2023-04-17T20:16:46.194Z,8.65
2023-04-17T20:19:14.501Z,8.93
2023-04-17T20:21:43.273Z,9.40
2023-04-17T20:24:12.901Z,9.32
2023-04-17T20:26:40.596Z,10.25
2023-04-17T20:29:08.794Z,9.77
2023-04-17T20:31:39.239Z,9.82
2023-04-17T20:34:07.213Z,10.63
2023-04-17T20:36:34.948Z,10.23
2023-04-17T20:39:03.162Z,10.18
2023-04-17T20:41:30.977Z,10.52
2023-04-17T20:43:59.377Z,9.63
2023-04-17T20:46:27.666Z,10.20
2023-04-17T20:48:57.105Z,10.95
2023-04-17T20:51:26.365Z,9.55
2023-04-17T20:53:54.501Z,10.63
2023-04-17T20:56:22.991Z,10.57
2023-04-17T20:58:50.831Z,10.00
2023-04-17T21:01:20.531Z,10.02
2023-04-17T21:03:48.431Z,10.15
2023-04-17T21:06:17.640Z,10.18
2023-04-17T21:08:45.580Z,9.98
2023-04-17T21:11:13.310Z,10.40
2023-04-17T21:13:41.029Z,9.93
2023-04-17T21:16:11.232Z,10.75
2023-04-17T21:18:38.899Z,10.75
2023-04-17T21:21:06.892Z,10.52
2023-04-17T21:23:36.108Z,11.30
2023-04-17T21:26:03.953Z,10.43
2023-04-17T21:28:31.644Z,10.48
2023-04-17T21:30:59.694Z,10.65
2023-04-17T21:33:27.415Z,10.57
2023-04-17T21:35:55.114Z,10.77
2023-04-17T21:38:22.788Z,10.30
2023-04-17T21:40:52.065Z,11.60
2023-04-17T21:43:19.787Z,11.30
2023-04-17T21:45:47.620Z,10.32
2023-04-17T21:48:15.641Z,11.05
2023-04-17T21:50:43.789Z,10.48
2023-04-17T21:53:11.638Z,11.00
2023-04-17T21:55:39.493Z,10.95
2023-04-17T21:58:08.681Z,10.40
2023-04-17T22:00:36.391Z,9.82
2023-04-17T22:03:04.160Z,9.68
2023-04-17T22:05:31.846Z,10.88
2023-04-17T22:08:01.189Z,10.27
2023-04-17T22:10:29.389Z,9.68
2023-04-17T22:12:57.065Z,10.27
2023-04-17T22:15:26.691Z,10.07
2023-04-17T22:17:54.465Z,9.98
2023-04-17T22:20:22.298Z,10.40
2023-04-17T22:22:50.358Z,9.82
2023-04-17T22:25:18.198Z,9.40
2023-04-17T22:27:45.958Z,9.98
2023-04-17T22:30:14.313Z,9.63
2023-04-17T22:32:43.428Z,10.02
2023-04-17T22:35:11.116Z,11.18
2023-04-17T22:37:38.825Z,10.43
2023-04-17T22:40:08.249Z,10.60
2023-04-17T22:42:35.932Z,9.65
2023-04-17T22:45:03.678Z,10.18
2023-04-17T22:47:31.883Z,10.90
2023-04-17T22:50:00.904Z,11.38
2023-04-17T22:52:28.569Z,10.90
2023-04-17T22:54:56.244Z,11.75
2023-04-17T22:57:23.912Z,10.95
2023-04-17T22:59:51.600Z,11.50
2023-04-17T23:02:19.288Z,11.80
2023-04-17T23:04:46.969Z,12.10
2023-04-17T23:07:15.947Z,11.43
2023-04-17T23:09:44.687Z,11.65
2023-04-17T23:12:12.340Z,12.18
2023-04-17T23:14:39.986Z,12.20
2023-04-17T23:17:07.870Z,10.77
2023-04-17T23:19:36.051Z,10.55
2023-04-17T23:22:03.828Z,11.05
2023-04-17T23:24:34.960Z,11.95
2023-04-17T23:27:02.824Z,10.82
2023-04-17T23:29:30.970Z,12.50
2023-04-17T23:31:58.670Z,12.02
2023-04-17T23:34:26.767Z,11.23
2023-04-17T23:36:54.452Z,11.98
2023-04-17T23:39:22.303Z,12.23
2023-04-17T23:41:51.587Z,12.88
2023-04-17T23:44:19.314Z,12.35
2023-04-17T23:46:47.032Z,11.60
2023-04-17T23:49:15.277Z,12.40
2023-04-17T23:51:42.896Z,12.10
2023-04-17T23:54:10.621Z,12.38
2023-04-17T23:56:38.342Z,12.50
2023-04-17T23:59:07.321Z,13.32
